createdAt,value
2018-09-16T00:00:25.371Z,5.70
2018-09-16T00:02:53.826Z,5.13
2018-09-16T00:05:22.362Z,4.90
2018-09-16T00:07:50.822Z,5.33
2018-09-16T00:10:19.306Z,5.17
2018-09-16T00:12:47.795Z,5.57
2018-09-16T00:15:16.269Z,5.73
2018-09-16T00:17:44.759Z,5.50
2018-09-16T00:20:13.253Z,6.27
2018-09-16T00:22:41.752Z,5.30
2018-09-16T00:25:10.267Z,5.53
2018-09-16T00:27:38.752Z,5.43
2018-09-16T00:30:07.276Z,5.53
2018-09-16T00:32:41.042Z,5.80
2018-09-16T00:35:09.581Z,6.03
2018-09-16T00:37:38.067Z,6.23
2018-09-16T00:40:06.735Z,6.30
2018-09-16T00:42:35.293Z,6.30
2018-09-16T00:45:06.960Z,5.70
2018-09-16T00:47:35.489Z,5.70
2018-09-16T00:50:04.031Z,6.20
2018-09-16T00:52:32.505Z,7.53
2018-09-16T00:55:00.965Z,6.20
2018-09-16T00:57:29.462Z,5.77
2018-09-16T00:59:58.021Z,7.43
2018-09-16T01:02:26.513Z,6.30
2018-09-16T01:04:54.979Z,5.27
2018-09-16T01:07:23.473Z,6.67
2018-09-16T01:09:51.982Z,6.47
2018-09-16T01:12:20.533Z,5.33
2018-09-16T01:14:48.993Z,6.67
2018-09-16T01:17:17.555Z,6.70
2018-09-16T01:19:47.558Z,6.77
2018-09-16T01:22:16.082Z,6.50
2018-09-16T01:24:44.577Z,6.40
2018-09-16T01:27:13.237Z,6.13
2018-09-16T01:29:42.545Z,7.00
2018-09-16T01:32:11.061Z,6.00
2018-09-16T01:34:39.518Z,8.53
2018-09-16T01:37:13.190Z,6.87
2018-09-16T01:39:41.678Z,6.27
2018-09-16T01:42:10.154Z,7.00
2018-09-16T01:44:38.853Z,6.17
2018-09-16T01:47:07.335Z,8.47
2018-09-16T01:49:35.857Z,7.60
2018-09-16T01:52:04.398Z,5.53
2018-09-16T01:54:32.837Z,5.70
2018-09-16T01:57:01.285Z,6.37
2018-09-16T01:59:29.734Z,6.17
2018-09-16T02:01:58.198Z,5.97
2018-09-16T02:04:26.677Z,6.40
2018-09-16T02:06:55.153Z,5.90
2018-09-16T02:09:23.597Z,5.40
2018-09-16T02:11:52.148Z,5.30
2018-09-16T02:14:20.717Z,5.50
2018-09-16T02:16:49.174Z,6.10
2018-09-16T02:19:17.658Z,5.40
2018-09-16T02:21:46.173Z,6.30
2018-09-16T02:24:14.677Z,5.40
2018-09-16T02:26:43.125Z,6.20
2018-09-16T02:29:11.557Z,5.77
2018-09-16T02:31:40.053Z,5.50
2018-09-16T02:34:09.101Z,5.70
2018-09-16T02:36:37.553Z,5.60
2018-09-16T02:39:08.187Z,5.90
2018-09-16T02:41:36.745Z,6.03
2018-09-16T02:44:05.322Z,6.80
2018-09-16T02:46:33.802Z,6.90
2018-09-16T02:49:02.355Z,6.80
2018-09-16T02:51:30.829Z,7.20
2018-09-16T02:53:59.339Z,7.80
2018-09-16T02:56:27.813Z,8.93
2018-09-16T02:58:56.330Z,8.90
2018-09-16T03:01:24.889Z,8.97
2018-09-16T03:03:53.357Z,7.90
2018-09-16T03:06:26.981Z,9.03
2018-09-16T03:08:55.486Z,8.67
2018-09-16T03:11:24.051Z,8.50
2018-09-16T03:13:52.517Z,9.43
2018-09-16T03:16:20.983Z,8.83
2018-09-16T03:18:49.633Z,10.50
2018-09-16T03:21:18.029Z,9.80
2018-09-16T03:23:46.517Z,10.10
2018-09-16T03:26:15.012Z,10.10
2018-09-16T03:28:43.519Z,9.43
2018-09-16T03:31:12.040Z,9.70
2018-09-16T03:33:40.525Z,9.70
2018-09-16T03:36:09.073Z,9.40
2018-09-16T03:38:37.573Z,10.07
2018-09-16T03:41:06.120Z,10.10
2018-09-16T03:43:34.659Z,11.13
2018-09-16T03:46:03.218Z,12.33
2018-09-16T03:48:31.786Z,10.80
2018-09-16T03:51:00.358Z,12.10
2018-09-16T03:53:28.814Z,11.83
2018-09-16T03:55:57.319Z,11.90
2018-09-16T03:58:25.861Z,11.43
2018-09-16T04:00:54.352Z,13.63
2018-09-16T04:03:22.853Z,12.93
2018-09-16T04:05:51.327Z,12.90
2018-09-16T04:08:24.074Z,14.07
2018-09-16T04:10:52.535Z,12.70
2018-09-16T04:13:21.038Z,13.50
2018-09-16T04:15:49.541Z,13.40
2018-09-16T04:18:18.001Z,12.37
2018-09-16T04:20:46.519Z,12.90
2018-09-16T04:23:14.991Z,13.53
2018-09-16T04:25:43.734Z,13.23
2018-09-16T04:28:12.238Z,14.47
2018-09-16T04:30:40.736Z,14.87
2018-09-16T04:33:09.274Z,14.10
2018-09-16T04:35:37.753Z,14.00
2018-09-16T04:38:06.349Z,14.77
2018-09-16T04:40:34.830Z,15.47
2018-09-16T04:43:03.362Z,15.77
2018-09-16T04:45:31.831Z,15.10
2018-09-16T04:48:00.344Z,16.63
2018-09-16T04:50:28.861Z,17.33
2018-09-16T04:52:57.322Z,17.80
2018-09-16T04:55:25.854Z,17.60
2018-09-16T04:57:54.587Z,17.87
2018-09-16T05:00:23.077Z,18.00
2018-09-16T05:02:51.608Z,19.60
2018-09-16T05:05:20.110Z,20.67
2018-09-16T05:07:48.743Z,21.87
2018-09-16T05:10:17.232Z,20.70
2018-09-16T05:12:45.725Z,22.40
2018-09-16T05:15:14.481Z,22.60
2018-09-16T05:17:42.971Z,21.70
2018-09-16T05:20:11.454Z,23.07
2018-09-16T05:22:40.063Z,22.40
2018-09-16T05:25:08.617Z,24.50
2018-09-16T05:27:37.077Z,24.23
2018-09-16T05:30:06.124Z,25.23
2018-09-16T05:32:34.749Z,24.93
2018-09-16T05:35:03.453Z,23.37
2018-09-16T05:37:31.956Z,24.30
2018-09-16T05:40:00.461Z,21.30
2018-09-16T05:42:28.941Z,23.27
2018-09-16T05:44:57.418Z,20.67
2018-09-16T05:47:25.985Z,22.67
2018-09-16T05:49:54.533Z,20.33
2018-09-16T05:52:23.002Z,22.70
2018-09-16T05:54:51.518Z,22.10
2018-09-16T05:57:20.042Z,20.67
2018-09-16T05:59:48.552Z,20.53
2018-09-16T06:02:17.178Z,20.60
2018-09-16T06:04:45.839Z,20.37
2018-09-16T06:07:14.402Z,17.23
2018-09-16T06:09:42.954Z,19.03
2018-09-16T06:12:11.501Z,19.17
2018-09-16T06:14:39.991Z,17.47
2018-09-16T06:17:08.534Z,17.03
2018-09-16T06:19:37.079Z,18.33
2018-09-16T06:22:05.641Z,18.70
2018-09-16T06:24:34.140Z,17.23
2018-09-16T06:27:02.629Z,17.53
2018-09-16T06:29:31.141Z,17.50
2018-09-16T06:31:59.884Z,16.50
2018-09-16T06:34:28.341Z,17.10
2018-09-16T06:36:56.848Z,17.13
2018-09-16T06:39:25.337Z,16.37
2018-09-16T06:41:53.826Z,15.90
2018-09-16T06:44:22.293Z,15.40
2018-09-16T06:46:50.766Z,15.13
2018-09-16T06:49:19.292Z,15.40
2018-09-16T06:51:47.939Z,15.90
2018-09-16T06:54:16.385Z,16.13
2018-09-16T06:56:44.878Z,14.27
2018-09-16T06:59:13.407Z,14.70
2018-09-16T07:01:41.873Z,14.10
2018-09-16T07:04:10.316Z,14.53
2018-09-16T07:06:38.863Z,14.20
2018-09-16T07:09:10.242Z,14.70
2018-09-16T07:11:38.734Z,15.97
2018-09-16T07:14:07.478Z,15.47
2018-09-16T07:16:36.017Z,14.23
2018-09-16T07:19:04.529Z,13.03
2018-09-16T07:21:33.001Z,14.37
2018-09-16T07:24:01.530Z,13.30
2018-09-16T07:26:30.035Z,14.13
2018-09-16T07:28:58.586Z,13.80
2018-09-16T07:31:27.074Z,15.20
2018-09-16T07:33:55.569Z,13.40
2018-09-16T07:36:24.141Z,13.87
2018-09-16T07:38:52.620Z,14.23
2018-09-16T07:41:21.091Z,14.63
2018-09-16T07:43:49.845Z,15.10
2018-09-16T07:46:18.339Z,13.37
2018-09-16T07:48:46.817Z,13.90
2018-09-16T07:51:15.289Z,14.30
2018-09-16T07:53:43.783Z,12.70
2018-09-16T07:56:12.311Z,13.90
2018-09-16T07:58:40.807Z,12.40
2018-09-16T08:01:09.309Z,13.00
2018-09-16T08:03:37.817Z,13.17
2018-09-16T08:06:06.421Z,12.47
2018-09-16T08:08:34.858Z,11.80
2018-09-16T08:11:03.405Z,12.20
2018-09-16T08:13:31.975Z,12.40
2018-09-16T08:16:01.319Z,11.27
2018-09-16T08:18:30.318Z,11.27
2018-09-16T08:20:59.026Z,10.60
2018-09-16T08:23:27.556Z,12.20
2018-09-16T08:25:56.180Z,11.33
2018-09-16T08:28:24.694Z,11.27
2018-09-16T08:30:53.205Z,11.90
2018-09-16T08:33:21.692Z,11.20
2018-09-16T08:35:50.338Z,11.07
2018-09-16T08:38:18.957Z,11.70
2018-09-16T08:40:47.554Z,12.30
2018-09-16T08:43:16.049Z,10.70
2018-09-16T08:45:44.557Z,10.90
2018-09-16T08:48:13.106Z,10.13
2018-09-16T08:50:41.630Z,9.50
2018-09-16T08:53:10.265Z,9.70
2018-09-16T08:55:38.809Z,8.90
2018-09-16T08:58:07.851Z,8.87
2018-09-16T09:00:36.641Z,9.13
2018-09-16T09:03:05.754Z,9.00
2018-09-16T09:05:34.276Z,8.20
2018-09-16T09:08:02.786Z,8.90
2018-09-16T09:10:31.282Z,8.10
2018-09-16T09:12:59.754Z,9.07
2018-09-16T09:15:28.245Z,8.50
2018-09-16T09:17:57.515Z,8.40
2018-09-16T09:20:26.029Z,8.50
2018-09-16T09:22:54.590Z,8.83
2018-09-16T09:25:23.108Z,9.00
2018-09-16T09:27:51.673Z,9.50
2018-09-16T09:30:20.790Z,8.40
2018-09-16T09:32:49.323Z,9.47
2018-09-16T09:35:17.774Z,8.53
2018-09-16T09:37:46.302Z,6.90
2018-09-16T09:40:14.781Z,7.63
2018-09-16T09:42:43.420Z,7.17
2018-09-16T09:45:11.958Z,8.10
2018-09-16T09:47:40.485Z,8.07
2018-09-16T09:50:09.023Z,6.13
2018-09-16T09:52:37.638Z,6.83
2018-09-16T09:55:06.135Z,7.33
2018-09-16T09:57:34.618Z,6.07
2018-09-16T10:00:03.158Z,5.70
2018-09-16T10:02:31.641Z,5.90
2018-09-16T10:05:00.179Z,6.93
2018-09-16T10:07:28.857Z,6.23
2018-09-16T10:09:57.428Z,6.23
2018-09-16T10:12:26.005Z,6.73
2018-09-16T10:14:54.497Z,6.23
2018-09-16T10:17:23.022Z,6.47
2018-09-16T10:19:51.551Z,6.77
2018-09-16T10:22:20.013Z,7.00
2018-09-16T10:24:48.563Z,6.47
2018-09-16T10:27:17.077Z,7.00
2018-09-16T10:29:45.553Z,7.10
2018-09-16T10:32:14.058Z,6.60
2018-09-16T10:34:42.926Z,6.30
2018-09-16T10:37:11.413Z,5.47
2018-09-16T10:39:40.701Z,5.40
2018-09-16T10:42:09.208Z,5.30
2018-09-16T10:44:37.845Z,5.17
2018-09-16T10:47:06.631Z,5.13
2018-09-16T10:49:35.314Z,4.03
2018-09-16T10:52:03.890Z,4.33
2018-09-16T10:54:32.598Z,4.27
2018-09-16T10:57:01.224Z,5.50
2018-09-16T10:59:29.850Z,3.67
2018-09-16T11:01:58.485Z,3.60
2018-09-16T11:04:27.001Z,3.43
2018-09-16T11:06:55.577Z,3.00
2018-09-16T11:09:24.131Z,4.20
2018-09-16T11:11:52.675Z,3.67
2018-09-16T11:14:21.245Z,3.50
2018-09-16T11:16:49.737Z,3.00
2018-09-16T11:19:18.283Z,3.03
2018-09-16T11:21:46.777Z,3.20
2018-09-16T11:24:15.274Z,3.40
2018-09-16T11:26:43.816Z,4.17
2018-09-16T11:29:13.106Z,3.60
2018-09-16T11:31:41.634Z,3.57
2018-09-16T11:34:10.111Z,2.97
2018-09-16T11:36:38.861Z,3.97
2018-09-16T11:39:09.440Z,3.10
2018-09-16T11:41:38.694Z,2.47
2018-09-16T11:44:08.248Z,1.80
2018-09-16T11:46:36.918Z,2.87
2018-09-16T11:49:05.598Z,2.63
2018-09-16T11:51:34.250Z,2.40
2018-09-16T11:54:02.705Z,3.20
2018-09-16T11:56:32.081Z,3.20
2018-09-16T11:59:00.569Z,2.37
2018-09-16T12:01:29.155Z,2.40
2018-09-16T12:03:57.620Z,2.20
2018-09-16T12:06:26.243Z,2.00
2018-09-16T12:08:54.808Z,2.57
2018-09-16T12:11:23.310Z,2.50
2018-09-16T12:13:51.850Z,2.70
2018-09-16T12:16:20.377Z,2.50
2018-09-16T12:18:48.891Z,3.37
2018-09-16T12:21:17.398Z,3.33
2018-09-16T12:23:45.935Z,3.13
2018-09-16T12:26:14.401Z,3.00
2018-09-16T12:28:43.013Z,2.73
2018-09-16T12:31:11.551Z,2.60
2018-09-16T12:36:23.205Z,2.53
2018-09-16T12:38:51.758Z,3.43
2018-09-16T12:41:20.348Z,2.40
2018-09-16T12:43:48.956Z,2.37
2018-09-16T12:46:17.525Z,2.77
2018-09-16T12:48:46.351Z,2.60
2018-09-16T12:51:14.949Z,2.50
2018-09-16T12:53:43.465Z,3.03
2018-09-16T12:56:12.002Z,2.50
2018-09-16T12:58:40.581Z,1.93
2018-09-16T13:01:09.113Z,2.57
2018-09-16T13:03:37.616Z,1.97
2018-09-16T13:06:06.190Z,2.40
2018-09-16T13:08:35.499Z,1.90
2018-09-16T13:11:03.998Z,1.80
2018-09-16T13:13:32.591Z,2.10
2018-09-16T13:16:01.067Z,2.00
2018-09-16T13:18:29.577Z,1.90
2018-09-16T13:20:58.573Z,2.10
2018-09-16T13:23:27.119Z,2.20
2018-09-16T13:25:56.247Z,2.30
2018-09-16T13:28:24.985Z,2.33
2018-09-16T13:30:53.492Z,1.80
2018-09-16T13:33:22.782Z,2.10
2018-09-16T13:35:51.330Z,2.13
2018-09-16T13:38:20.896Z,2.43
2018-09-16T13:40:49.385Z,2.13
2018-09-16T13:43:17.897Z,1.97
2018-09-16T13:45:46.461Z,2.07
2018-09-16T13:48:15.335Z,1.93
2018-09-16T13:50:44.142Z,3.20
2018-09-16T13:53:12.802Z,2.87
2018-09-16T13:55:41.893Z,2.47
2018-09-16T13:58:10.414Z,2.37
2018-09-16T14:00:39.012Z,2.17
2018-09-16T14:03:07.548Z,2.50
2018-09-16T14:05:36.654Z,1.97
2018-09-16T14:08:05.193Z,2.07
2018-09-16T14:10:33.703Z,1.93
2018-09-16T14:13:02.880Z,2.00
2018-09-16T14:15:31.511Z,4.87
2018-09-16T14:18:00.685Z,2.57
2018-09-16T14:20:29.213Z,4.33
2018-09-16T14:22:57.766Z,7.37
2018-09-16T14:25:26.343Z,4.20
2018-09-16T14:27:54.857Z,2.90
2018-09-16T14:30:23.402Z,1.93
2018-09-16T14:32:52.631Z,2.70
2018-09-16T14:35:21.231Z,1.83
2018-09-16T14:37:49.831Z,1.90
2018-09-16T14:40:19.604Z,2.37
2018-09-16T14:42:48.738Z,1.70
2018-09-16T14:45:17.266Z,1.93
2018-09-16T14:47:45.826Z,1.97
2018-09-16T14:50:15.369Z,2.37
2018-09-16T14:52:43.925Z,2.00
2018-09-16T14:55:13.107Z,1.90
2018-09-16T14:57:41.715Z,2.33
2018-09-16T15:00:10.234Z,2.33
2018-09-16T15:02:38.729Z,1.77
2018-09-16T15:05:07.241Z,1.60
2018-09-16T15:07:35.822Z,2.80
2018-09-16T15:10:04.391Z,2.47
2018-09-16T15:12:32.905Z,2.23
2018-09-16T15:15:01.428Z,6.63
2018-09-16T15:17:29.945Z,3.87
2018-09-16T15:20:05.113Z,6.20
2018-09-16T15:22:33.625Z,5.77
2018-09-16T15:25:02.133Z,2.00
2018-09-16T15:27:30.660Z,2.70
2018-09-16T15:29:59.221Z,1.67
2018-09-16T15:32:27.730Z,2.30
2018-09-16T15:34:56.246Z,2.27
2018-09-16T15:37:24.778Z,1.80
2018-09-16T15:39:53.325Z,2.40
2018-09-16T15:42:21.862Z,2.17
2018-09-16T15:44:51.253Z,2.03
2018-09-16T15:47:19.820Z,2.17
2018-09-16T15:49:48.957Z,2.17
2018-09-16T15:52:17.554Z,3.20
2018-09-16T15:54:46.225Z,3.40
2018-09-16T15:57:14.774Z,4.63
2018-09-16T15:59:44.077Z,4.90
2018-09-16T16:02:12.725Z,7.17
2018-09-16T16:04:41.273Z,2.30
2018-09-16T16:07:09.801Z,2.27
2018-09-16T16:09:38.373Z,2.07
2018-09-16T16:12:07.815Z,1.90
2018-09-16T16:14:36.582Z,2.10
2018-09-16T16:17:05.243Z,1.80
2018-09-16T16:19:33.826Z,2.03
2018-09-16T16:22:02.338Z,2.47
2018-09-16T16:24:30.869Z,2.30
2018-09-16T16:26:59.337Z,1.73
2018-09-16T16:29:27.854Z,1.53
2018-09-16T16:31:56.970Z,2.50
2018-09-16T16:34:25.649Z,2.60
2018-09-16T16:36:54.811Z,2.00
2018-09-16T16:39:23.337Z,2.40
2018-09-16T16:41:51.849Z,1.80
2018-09-16T16:44:20.398Z,1.90
2018-09-16T16:46:48.891Z,1.97
2018-09-16T16:49:17.383Z,2.10
2018-09-16T16:51:45.913Z,1.70
2018-09-16T16:54:14.505Z,1.80
2018-09-16T16:56:42.997Z,1.40
2018-09-16T16:59:11.509Z,2.20
2018-09-16T17:01:40.119Z,2.10
2018-09-16T17:04:08.669Z,1.50
2018-09-16T17:06:37.859Z,1.93
2018-09-16T17:09:08.473Z,2.60
2018-09-16T17:11:37.001Z,1.77
2018-09-16T17:14:05.629Z,2.00
2018-09-16T17:16:34.134Z,2.10
2018-09-16T17:19:02.905Z,3.00
2018-09-16T17:21:31.446Z,2.37
2018-09-16T17:24:00.200Z,2.43
2018-09-16T17:26:28.697Z,2.40
2018-09-16T17:28:57.308Z,2.50
2018-09-16T17:31:25.846Z,2.30
2018-09-16T17:33:54.689Z,5.63
2018-09-16T17:36:23.186Z,9.47
2018-09-16T17:38:51.872Z,10.80
2018-09-16T17:41:20.444Z,7.30
2018-09-16T17:43:48.937Z,5.03
2018-09-16T17:46:17.582Z,5.73
2018-09-16T17:48:46.545Z,4.00
2018-09-16T17:51:15.143Z,4.10
2018-09-16T17:53:43.635Z,2.97
2018-09-16T17:56:12.264Z,2.47
2018-09-16T17:58:40.816Z,2.20
2018-09-16T18:01:09.590Z,1.90
2018-09-16T18:03:38.186Z,2.30
2018-09-16T18:06:06.806Z,1.60
2018-09-16T18:08:40.509Z,2.20
2018-09-16T18:11:09.094Z,1.90
2018-09-16T18:13:37.658Z,2.20
2018-09-16T18:16:06.228Z,2.03
2018-09-16T18:18:34.827Z,1.70
2018-09-16T18:21:03.369Z,1.67
2018-09-16T18:23:32.006Z,2.30
2018-09-16T18:26:00.506Z,2.13
2018-09-16T18:28:29.265Z,1.80
2018-09-16T18:30:57.827Z,1.77
2018-09-16T18:33:26.418Z,2.43
2018-09-16T18:35:54.980Z,2.27
2018-09-16T18:38:23.614Z,2.20
2018-09-16T18:40:52.219Z,2.50
2018-09-16T18:43:20.897Z,2.10
2018-09-16T18:45:49.434Z,2.27
2018-09-16T18:48:17.957Z,2.03
2018-09-16T18:50:46.478Z,2.77
2018-09-16T18:53:15.014Z,2.93
2018-09-16T18:55:43.558Z,2.93
2018-09-16T18:58:12.121Z,2.67
2018-09-16T19:00:40.682Z,3.00
2018-09-16T19:03:09.301Z,2.57
2018-09-16T19:05:37.872Z,2.53
2018-09-16T19:08:06.862Z,2.80
2018-09-16T19:10:35.394Z,3.63
2018-09-16T19:13:03.941Z,3.77
2018-09-16T19:15:32.597Z,3.53
2018-09-16T19:18:01.078Z,3.43
2018-09-16T19:20:29.699Z,5.20
2018-09-16T19:22:58.193Z,2.77
2018-09-16T19:25:26.731Z,3.27
2018-09-16T19:27:55.193Z,3.83
2018-09-16T19:30:23.946Z,4.70
2018-09-16T19:32:52.547Z,3.40
2018-09-16T19:35:21.132Z,3.57
2018-09-16T19:37:49.645Z,3.83
2018-09-16T19:40:18.145Z,4.23
2018-09-16T19:42:46.635Z,4.03
2018-09-16T19:45:15.185Z,4.70
2018-09-16T19:47:43.669Z,3.93
2018-09-16T19:50:12.209Z,4.30
2018-09-16T19:52:40.701Z,3.80
2018-09-16T19:55:09.211Z,3.47
2018-09-16T19:57:37.954Z,3.53
2018-09-16T20:00:06.629Z,3.73
2018-09-16T20:02:35.099Z,3.87
2018-09-16T20:05:03.639Z,3.87
2018-09-16T20:07:37.594Z,3.93
2018-09-16T20:10:09.088Z,4.60
2018-09-16T20:12:42.745Z,4.50
2018-09-16T20:15:11.453Z,3.80
2018-09-16T20:17:39.977Z,4.10
2018-09-16T20:20:08.510Z,4.50
2018-09-16T20:22:36.981Z,3.90
2018-09-16T20:25:05.576Z,3.70
2018-09-16T20:27:34.085Z,4.10
2018-09-16T20:30:02.622Z,3.70
2018-09-16T20:32:31.266Z,4.13
2018-09-16T20:34:59.741Z,4.10
2018-09-16T20:37:28.293Z,4.60
2018-09-16T20:39:56.769Z,3.70
2018-09-16T20:42:25.297Z,4.00
2018-09-16T20:44:54.681Z,3.97
2018-09-16T20:47:23.243Z,4.07
2018-09-16T20:49:51.774Z,5.00
2018-09-16T20:52:20.327Z,4.20
2018-09-16T20:54:49.604Z,4.43
2018-09-16T20:57:18.087Z,4.27
2018-09-16T20:59:46.593Z,3.70
2018-09-16T21:02:15.318Z,4.07
2018-09-16T21:04:44.806Z,4.00
2018-09-16T21:07:13.268Z,3.97
2018-09-16T21:09:42.150Z,4.47
2018-09-16T21:12:10.931Z,4.93
2018-09-16T21:14:39.430Z,4.30
2018-09-16T21:17:08.205Z,4.60
2018-09-16T21:19:36.720Z,4.57
2018-09-16T21:22:05.263Z,4.07
2018-09-16T21:24:33.773Z,5.20
2018-09-16T21:27:02.245Z,4.60
2018-09-16T21:29:30.974Z,4.50
2018-09-16T21:31:59.494Z,5.10
2018-09-16T21:34:28.000Z,4.90
2018-09-16T21:36:56.557Z,4.63
2018-09-16T21:39:25.053Z,4.97
2018-09-16T21:41:53.533Z,4.23
2018-09-16T21:44:22.022Z,4.40
2018-09-16T21:46:50.490Z,3.93
2018-09-16T21:49:19.033Z,5.10
2018-09-16T21:51:47.497Z,4.10
2018-09-16T21:54:16.067Z,3.73
2018-09-16T21:56:44.570Z,4.23
2018-09-16T21:59:13.126Z,4.63
2018-09-16T22:01:41.631Z,4.60
2018-09-16T22:04:10.199Z,5.20
2018-09-16T22:06:38.797Z,4.17
2018-09-16T22:09:08.843Z,4.63
2018-09-16T22:11:37.377Z,4.30
2018-09-16T22:14:05.846Z,5.43
2018-09-16T22:16:34.391Z,4.77
2018-09-16T22:19:02.876Z,4.60
2018-09-16T22:21:31.469Z,4.03
2018-09-16T22:24:00.254Z,4.50
2018-09-16T22:26:28.772Z,5.37
2018-09-16T22:28:57.277Z,4.40
2018-09-16T22:31:25.839Z,4.80
2018-09-16T22:33:54.355Z,4.77
2018-09-16T22:36:22.878Z,5.07
2018-09-16T22:38:51.398Z,4.53
2018-09-16T22:41:19.870Z,5.07
2018-09-16T22:43:48.572Z,4.60
2018-09-16T22:46:17.067Z,5.20
2018-09-16T22:48:45.587Z,4.40
2018-09-16T22:51:14.101Z,5.00
2018-09-16T22:53:42.565Z,5.70
2018-09-16T22:56:11.346Z,5.23
2018-09-16T22:58:39.923Z,4.70
2018-09-16T23:01:09.221Z,5.50
2018-09-16T23:03:37.721Z,5.10
2018-09-16T23:06:06.310Z,5.07
2018-09-16T23:08:34.793Z,5.63
2018-09-16T23:11:03.361Z,5.00
2018-09-16T23:13:31.898Z,5.67
2018-09-16T23:16:00.388Z,5.60
2018-09-16T23:18:29.001Z,4.87
2018-09-16T23:20:57.558Z,4.70
2018-09-16T23:23:26.135Z,5.67
2018-09-16T23:25:54.786Z,5.50
2018-09-16T23:28:23.289Z,6.40
2018-09-16T23:30:51.834Z,6.77
2018-09-16T23:33:20.381Z,6.10
2018-09-16T23:35:48.853Z,6.93
2018-09-16T23:38:17.360Z,5.73
2018-09-16T23:40:46.421Z,4.90
2018-09-16T23:43:14.920Z,6.23
2018-09-16T23:45:44.249Z,6.10
2018-09-16T23:48:12.786Z,5.67
2018-09-16T23:50:41.277Z,6.60
2018-09-16T23:53:09.802Z,6.93
2018-09-16T23:55:38.378Z,6.00
2018-09-16T23:58:07.016Z,7.77
